Strona główna
METAR-TAF:

METAR-TAF

Lotnisko :

Gaithersburg, Maryland, Stany Zjednoczone

Szerokość geograficzna: 39-10-06N, Długość geograficzna: 077-09-58W, wysokość: 164 m

Aktualna obserwacja pogody

Raport powstał 1 godzina i 0 minut temu, godzina 07:56 UTC
Wiatr 7 kt od zachód
Temperatura 6°C
Wilgotność 70%
Ciśnienie 1006 hPa
Widzialność: 16.1 km
Zachmurzenie całkowite na wysokości 4500 ft

METAR: KGAI 150756Z AUTO 26007KT 10SM OVC045 06/01 A2972 RMK AO2 SLP081 T00610006

czas: 03:56 (08:56 UTC)


TAF: brakujący

Obserwacja i prognoza pogody dla ponad 4000 lotnisk (raport METAR i TAF).

Dostępne stacje oznaczono żółtymi i czerwonymi punktami na mapie.

Najedź kursorem aby zobaczyć nazwę stacji.

Kliknij aby zobaczyć obserwacje i prognozy pogody.

Aby zmienić mapę: kliknij na zielony przycisk z czarnym krzyżykiem, aby powiększyć; na zielony przycisk z myślnikiem, aby pomniejszyć; na zielone strzałki, aby przejść do map sąsiednich.


METAR-TAF: